HEBA/HBE METAR and TAF weather

Enter ICAO airport designator
Station Type Date Time Source
HEBA METAR 2020/09/27 03:00 UTC NOAA

HEBA 270300Z 09005KT 6000 NSC 21/20 Q1012 NOSIG


Station Type Date Time Source
HEBA Decoded METAR 2020/09/27 03:00 UTC NOAA

Alexandria Borg El Arab, Egypt (HEBA) 31-31N 030-10E
Sep 26, 2020 - 11:00 PM EDT / 2020.09.27 0300 UTC
Wind: from the E (090 degrees) at 6 MPH (5 KT):0
Visibility: 3 mile(s):0
Temperature: 69 F (21 C)
Dew Point: 68 F (20 C)
Relative Humidity: 94%
Pressure (altimeter): 29.88 in. Hg (1012 hPa)
ob: HEBA 270300Z 09005KT 6000 NSC 21/20 Q1012 NOSIG
cycle: 3

Station Type Date Time Source
HEBA TAF 2020/09/27 06:57 UTC NOAA

TAF HEBA 270500Z 2706/2812 03011KT 9999 SCT020

Example: see airport list